createdAt,value
2023-02-05T00:00:07.494Z,72.92
2023-02-05T00:04:28.758Z,72.68
2023-02-05T00:08:27.422Z,72.78
2023-02-05T00:12:26.419Z,72.92
2023-02-05T00:16:30.613Z,72.80
2023-02-05T00:20:28.437Z,72.56
2023-02-05T00:24:26.435Z,72.52
2023-02-05T00:28:24.463Z,72.55
2023-02-05T00:32:22.428Z,72.64
2023-02-05T00:36:21.385Z,72.59
2023-02-05T00:40:20.445Z,72.82
2023-02-05T00:44:18.363Z,72.95
2023-02-05T00:48:17.416Z,72.84
2023-02-05T00:52:16.434Z,73.05
2023-02-05T00:56:14.399Z,73.28
2023-02-05T01:00:13.405Z,73.45
2023-02-05T01:04:11.481Z,73.57
2023-02-05T01:08:09.356Z,73.24
2023-02-05T01:12:07.347Z,73.16
2023-02-05T01:16:06.368Z,73.34
2023-02-05T01:20:04.350Z,73.33
2023-02-05T01:24:04.288Z,73.01
2023-02-05T01:28:05.510Z,72.98
2023-02-05T01:32:03.397Z,72.88
2023-02-05T01:36:02.321Z,72.68
2023-02-05T01:40:00.358Z,72.61
2023-02-05T01:43:58.333Z,72.03
2023-02-05T01:47:56.332Z,72.30
2023-02-05T01:51:54.401Z,72.18
2023-02-05T01:55:59.279Z,72.29
2023-02-05T01:59:59.277Z,71.73
2023-02-05T02:04:08.275Z,71.60
2023-02-05T02:08:06.374Z,71.81
2023-02-05T02:12:04.254Z,71.85
2023-02-05T02:16:04.268Z,72.11
2023-02-05T02:20:19.358Z,72.52
2023-02-05T02:25:02.247Z,72.66
2023-02-05T02:29:09.285Z,73.47
2023-02-05T02:33:16.271Z,73.98
2023-02-05T02:37:14.253Z,74.18
2023-02-05T02:41:33.195Z,73.97
2023-02-05T02:45:32.479Z,74.14
2023-02-05T02:49:36.256Z,74.36
2023-02-05T02:53:39.256Z,74.55
2023-02-05T02:57:40.299Z,74.47
2023-02-05T03:01:42.724Z,74.20
2023-02-05T03:05:45.271Z,73.35
2023-02-05T03:10:21.238Z,73.11
2023-02-05T03:14:19.274Z,73.82
2023-02-05T03:18:17.198Z,72.65
2023-02-05T03:22:19.123Z,70.00
2023-02-05T03:26:17.252Z,68.42
2023-02-05T03:30:15.224Z,67.60
2023-02-05T03:34:13.104Z,67.53
2023-02-05T03:38:20.132Z,67.09
2023-02-05T03:42:25.139Z,67.11
2023-02-05T03:46:57.215Z,66.97
2023-02-05T03:51:03.085Z,66.55
2023-02-05T03:55:07.207Z,66.82
2023-02-05T03:59:08.066Z,66.33
2023-02-05T04:03:06.244Z,65.76
2023-02-05T04:07:08.047Z,65.46
2023-02-05T04:11:06.074Z,65.23
2023-02-05T04:15:04.049Z,64.94
2023-02-05T04:19:03.127Z,65.47
2023-02-05T04:23:02.056Z,65.33
2023-02-05T04:27:00.053Z,64.93
2023-02-05T04:30:58.047Z,64.96
2023-02-05T04:34:57.041Z,65.18
2023-02-05T04:38:55.004Z,65.94
2023-02-05T04:42:53.002Z,65.47
2023-02-05T04:46:50.972Z,65.24
2023-02-05T04:50:49.019Z,65.61
2023-02-05T04:54:47.002Z,65.78
2023-02-05T04:58:45.048Z,65.87
2023-02-05T05:02:42.991Z,66.30
2023-02-05T05:06:41.062Z,66.53
2023-02-05T05:10:41.084Z,66.55
2023-02-05T05:14:39.065Z,66.89
2023-02-05T05:18:37.950Z,67.60
2023-02-05T05:22:36.048Z,67.90
2023-02-05T05:26:33.967Z,68.15
2023-02-05T05:30:31.958Z,68.39
2023-02-05T05:34:29.986Z,68.42
2023-02-05T05:38:27.960Z,67.99
2023-02-05T05:42:43.988Z,68.03
2023-02-05T05:46:41.957Z,68.35
2023-02-05T05:50:39.925Z,68.31
2023-02-05T05:54:37.924Z,68.47
2023-02-05T05:58:35.906Z,68.80
2023-02-05T06:02:33.923Z,69.03
2023-02-05T06:06:31.928Z,68.60
2023-02-05T06:10:29.946Z,68.79
2023-02-05T06:14:27.866Z,69.08
2023-02-05T06:18:25.968Z,68.95
2023-02-05T06:22:23.947Z,69.26
2023-02-05T06:26:22.043Z,69.83
2023-02-05T06:30:21.979Z,70.12
2023-02-05T06:34:20.048Z,70.54
2023-02-05T06:38:17.926Z,70.78
2023-02-05T06:42:15.892Z,71.11
2023-02-05T06:46:13.891Z,71.63
2023-02-05T06:50:12.854Z,71.39
2023-02-05T06:54:10.881Z,72.28
2023-02-05T06:58:08.816Z,72.35
2023-02-05T07:02:06.817Z,72.24
2023-02-05T07:06:04.855Z,71.90
2023-02-05T07:10:02.802Z,71.85
2023-02-05T07:14:00.801Z,71.49
2023-02-05T07:18:03.796Z,71.01
2023-02-05T07:22:01.851Z,70.62
2023-02-05T07:25:59.782Z,69.96
2023-02-05T07:29:57.807Z,69.65
2023-02-05T07:33:56.744Z,69.10
2023-02-05T07:37:54.771Z,68.74
2023-02-05T07:41:52.729Z,67.87
2023-02-05T07:45:52.765Z,67.35
2023-02-05T07:49:50.847Z,66.52
2023-02-05T07:53:48.772Z,65.50
2023-02-05T07:57:46.708Z,64.85
2023-02-05T08:01:44.778Z,64.16
2023-02-05T08:05:42.760Z,63.88
2023-02-05T08:09:40.726Z,63.07
2023-02-05T08:13:11.433Z,63.40
2023-02-05T08:16:35.431Z,63.03
2023-02-05T08:20:03.129Z,62.91
2023-02-05T08:23:27.716Z,62.11
2023-02-05T08:26:51.663Z,62.00
2023-02-05T08:30:18.454Z,61.83
2023-02-05T08:33:42.405Z,62.19
2023-02-05T08:37:07.650Z,62.07
2023-02-05T08:40:33.081Z,61.15
2023-02-05T08:43:57.094Z,61.85
2023-02-05T08:47:23.185Z,62.15
2023-02-05T08:50:47.679Z,61.70
2023-02-05T08:54:13.492Z,60.94
2023-02-05T08:57:37.793Z,61.51
2023-02-05T09:01:07.923Z,61.95
2023-02-05T09:04:32.456Z,62.03
2023-02-05T09:07:56.342Z,62.02
2023-02-05T09:11:26.857Z,61.80
2023-02-05T09:14:50.819Z,62.20
2023-02-05T09:18:15.264Z,61.80
2023-02-05T09:21:39.237Z,61.87
2023-02-05T09:25:03.197Z,61.78
2023-02-05T09:28:27.342Z,61.85
2023-02-05T09:31:53.711Z,62.43
2023-02-05T09:35:17.669Z,61.73
2023-02-05T09:38:42.461Z,61.29
2023-02-05T09:42:18.771Z,61.08
2023-02-05T09:45:51.763Z,60.40
2023-02-05T09:49:27.646Z,59.67
2023-02-05T09:52:51.952Z,59.68
2023-02-05T09:56:18.440Z,59.40
2023-02-05T09:59:48.143Z,59.97
2023-02-05T10:03:14.988Z,61.14
2023-02-05T10:07:10.912Z,62.56
2023-02-05T10:10:47.079Z,63.04
2023-02-05T10:14:28.057Z,61.52
2023-02-05T10:18:13.714Z,61.44
2023-02-05T10:21:56.762Z,61.36
2023-02-05T10:25:27.225Z,60.38
2023-02-05T10:29:06.268Z,60.65
2023-02-05T10:32:39.354Z,60.63
2023-02-05T10:36:09.103Z,60.22
2023-02-05T10:39:32.964Z,59.41
2023-02-05T10:43:05.632Z,60.50
2023-02-05T10:46:34.786Z,61.58
2023-02-05T10:50:07.774Z,62.74
2023-02-05T10:53:32.251Z,61.63
2023-02-05T10:56:58.354Z,59.73
2023-02-05T11:00:24.159Z,59.09
2023-02-05T11:03:52.612Z,59.50
2023-02-05T11:07:35.614Z,60.33
2023-02-05T11:10:59.592Z,61.91
2023-02-05T11:14:34.205Z,62.54
2023-02-05T11:18:01.998Z,62.60
2023-02-05T11:21:45.789Z,63.70
2023-02-05T11:25:22.869Z,63.57
2023-02-05T11:28:47.220Z,63.68
2023-02-05T11:32:37.586Z,64.17
2023-02-05T11:36:15.396Z,64.69
2023-02-05T11:39:41.705Z,64.87
2023-02-05T11:43:08.073Z,64.64
2023-02-05T11:46:44.342Z,64.55
2023-02-05T11:50:24.232Z,64.42
2023-02-05T11:54:29.851Z,63.54
2023-02-05T11:58:02.564Z,64.07
2023-02-05T12:01:29.349Z,65.19
2023-02-05T12:04:59.730Z,66.21
2023-02-05T12:08:50.554Z,66.90
2023-02-05T12:12:33.892Z,66.84
2023-02-05T12:16:06.950Z,66.86
2023-02-05T12:20:20.749Z,67.49
2023-02-05T12:24:08.420Z,66.69
2023-02-05T12:27:57.578Z,66.75
2023-02-05T12:31:53.005Z,66.84
2023-02-05T12:36:08.950Z,66.72
2023-02-05T12:39:52.874Z,66.41
2023-02-05T12:43:28.964Z,65.44
2023-02-05T12:47:00.906Z,64.49
2023-02-05T12:50:46.817Z,63.36
2023-02-05T12:54:31.038Z,61.17
2023-02-05T12:57:59.967Z,61.47
2023-02-05T13:01:34.956Z,60.61
2023-02-05T13:05:14.025Z,60.59
2023-02-05T13:08:48.418Z,60.39
2023-02-05T13:12:19.613Z,60.04
2023-02-05T13:15:46.323Z,60.54
2023-02-05T13:19:29.543Z,61.29
2023-02-05T13:23:15.885Z,61.86
2023-02-05T13:27:02.961Z,61.54
2023-02-05T13:30:37.395Z,61.62
2023-02-05T13:34:06.078Z,61.77
2023-02-05T13:38:26.908Z,61.98
2023-02-05T13:42:26.201Z,62.99
2023-02-05T13:46:11.436Z,62.70
2023-02-05T13:49:50.492Z,63.18
2023-02-05T13:53:30.559Z,63.94
2023-02-05T13:57:32.319Z,64.21
2023-02-05T14:01:03.381Z,65.68
2023-02-05T14:04:41.726Z,66.44
2023-02-05T14:08:06.838Z,67.29
2023-02-05T14:12:04.188Z,67.99
2023-02-05T14:15:38.727Z,69.06
2023-02-05T14:19:02.740Z,69.53
2023-02-05T14:22:38.814Z,69.78
2023-02-05T14:26:07.052Z,69.79
2023-02-05T14:29:49.474Z,68.98
2023-02-05T14:33:35.194Z,68.12
2023-02-05T14:37:00.132Z,67.68
2023-02-05T14:40:27.192Z,67.63
2023-02-05T14:44:05.683Z,67.83
2023-02-05T14:47:35.835Z,67.99
2023-02-05T14:51:25.936Z,67.73
2023-02-05T14:54:59.630Z,67.57
2023-02-05T14:58:40.940Z,67.25
2023-02-05T15:02:05.253Z,66.74
2023-02-05T15:05:35.966Z,66.95
2023-02-05T15:09:31.648Z,66.91
2023-02-05T15:13:11.850Z,66.78
2023-02-05T15:16:38.420Z,66.55
2023-02-05T15:20:24.876Z,66.38
2023-02-05T15:24:12.320Z,65.95
2023-02-05T15:27:46.524Z,66.08
2023-02-05T15:31:34.751Z,65.03
2023-02-05T15:35:12.818Z,64.68
2023-02-05T15:38:45.595Z,65.34
2023-02-05T15:42:16.860Z,66.29
2023-02-05T15:45:45.094Z,66.92
2023-02-05T15:49:11.881Z,67.53
2023-02-05T15:52:36.473Z,67.96
2023-02-05T15:56:15.428Z,68.45
2023-02-05T15:59:41.381Z,68.57
2023-02-05T16:03:06.813Z,68.80
2023-02-05T16:06:31.492Z,69.15
2023-02-05T16:09:59.724Z,69.31
2023-02-05T16:13:23.927Z,69.29
2023-02-05T16:17:00.574Z,69.35
2023-02-05T16:20:32.046Z,69.55
2023-02-05T16:24:06.755Z,69.67
2023-02-05T16:27:41.890Z,69.61
2023-02-05T16:31:09.667Z,69.62
2023-02-05T16:34:37.771Z,69.76
2023-02-05T16:38:09.944Z,69.85
2023-02-05T16:41:39.713Z,70.15
2023-02-05T16:45:09.910Z,70.41
2023-02-05T16:48:49.115Z,70.60
2023-02-05T16:52:35.571Z,70.62
2023-02-05T16:56:14.204Z,70.71
2023-02-05T16:59:59.688Z,71.08
2023-02-05T17:03:23.998Z,71.26
2023-02-05T17:06:47.941Z,71.58
2023-02-05T17:10:17.881Z,71.63
2023-02-05T17:13:44.001Z,71.95
2023-02-05T17:17:18.707Z,72.26
2023-02-05T17:20:42.848Z,72.61
2023-02-05T17:24:09.571Z,72.73
2023-02-05T17:27:40.647Z,72.84
2023-02-05T17:31:05.909Z,73.07
2023-02-05T17:34:31.318Z,73.09
2023-02-05T17:37:55.305Z,73.12
2023-02-05T17:41:40.283Z,73.05
2023-02-05T17:45:04.475Z,73.17
2023-02-05T17:48:28.744Z,73.42
2023-02-05T17:51:52.869Z,73.59
2023-02-05T17:55:19.524Z,73.74
2023-02-05T17:58:43.567Z,73.76
2023-02-05T18:02:10.393Z,73.54
2023-02-05T18:05:54.837Z,73.58
2023-02-05T18:09:52.963Z,73.41
2023-02-05T18:13:50.835Z,73.64
2023-02-05T18:17:48.874Z,73.68
2023-02-05T18:21:46.818Z,73.79
2023-02-05T18:25:44.790Z,73.57
2023-02-05T18:29:43.834Z,73.75
2023-02-05T18:33:41.778Z,73.90
2023-02-05T18:37:39.809Z,73.83
2023-02-05T18:41:37.823Z,73.74
2023-02-05T18:45:35.781Z,73.44
2023-02-05T18:49:33.782Z,73.15
2023-02-05T18:53:34.772Z,72.80
2023-02-05T18:57:32.887Z,72.97
2023-02-05T19:01:32.803Z,72.99
2023-02-05T19:05:31.765Z,72.82
2023-02-05T19:09:29.726Z,72.67
2023-02-05T19:13:27.773Z,72.92
2023-02-05T19:17:26.735Z,72.97
2023-02-05T19:21:30.754Z,72.70
2023-02-05T19:25:29.776Z,72.70
2023-02-05T19:29:29.841Z,72.30
2023-02-05T19:33:34.781Z,72.27
2023-02-05T19:37:33.851Z,72.04
2023-02-05T19:41:35.766Z,72.24
2023-02-05T19:45:33.728Z,71.93
2023-02-05T19:49:33.704Z,71.77
2023-02-05T19:53:31.772Z,71.44
2023-02-05T19:57:29.637Z,71.95
2023-02-05T20:01:42.905Z,72.05
2023-02-05T20:05:40.738Z,72.16
2023-02-05T20:09:39.698Z,71.79
2023-02-05T20:13:41.660Z,71.44
2023-02-05T20:17:39.673Z,71.36
2023-02-05T20:21:38.647Z,71.08
2023-02-05T20:25:40.723Z,71.07
2023-02-05T20:29:57.583Z,71.11
2023-02-05T20:33:56.636Z,71.64
2023-02-05T20:37:55.782Z,71.34
2023-02-05T20:41:55.408Z,70.99
2023-02-05T20:45:53.656Z,71.24
2023-02-05T20:49:53.707Z,71.45
2023-02-05T20:53:51.687Z,71.40
2023-02-05T20:57:49.626Z,71.33
2023-02-05T21:01:49.566Z,70.80
2023-02-05T21:05:47.635Z,70.76
2023-02-05T21:09:45.548Z,71.13
2023-02-05T21:13:43.571Z,71.16
2023-02-05T21:17:41.549Z,71.09
2023-02-05T21:21:45.753Z,71.32
2023-02-05T21:25:43.564Z,71.29
2023-02-05T21:29:41.591Z,71.51
2023-02-05T21:33:39.513Z,70.88
2023-02-05T21:37:38.522Z,70.93
2023-02-05T21:41:36.549Z,70.63
2023-02-05T21:45:36.969Z,70.71
2023-02-05T21:49:34.528Z,70.87
2023-02-05T21:53:32.640Z,70.91
2023-02-05T21:57:31.483Z,71.22
2023-02-05T22:01:30.477Z,71.39
2023-02-05T22:05:28.467Z,71.66
2023-02-05T22:09:29.491Z,71.52
2023-02-05T22:13:27.450Z,71.25
2023-02-05T22:17:25.567Z,71.33
2023-02-05T22:21:31.436Z,71.50
2023-02-05T22:25:29.481Z,71.57
2023-02-05T22:29:29.485Z,71.71
2023-02-05T22:33:27.462Z,72.05
2023-02-05T22:37:25.457Z,72.03
2023-02-05T22:41:28.494Z,71.73
2023-02-05T22:45:26.476Z,71.74
2023-02-05T22:49:26.620Z,71.67
2023-02-05T22:53:25.397Z,71.64
2023-02-05T22:57:24.405Z,71.90
2023-02-05T23:01:24.457Z,72.07
2023-02-05T23:05:22.393Z,72.10
2023-02-05T23:09:34.398Z,71.96
2023-02-05T23:13:32.450Z,72.18
2023-02-05T23:17:30.344Z,72.10
2023-02-05T23:21:38.441Z,72.14
2023-02-05T23:25:36.567Z,72.27
2023-02-05T23:29:34.394Z,72.23
2023-02-05T23:33:32.370Z,72.20
2023-02-05T23:37:30.351Z,72.38
2023-02-05T23:46:08.503Z,72.11
2023-02-05T23:50:06.285Z,71.90
2023-02-05T23:54:04.371Z,72.07
2023-02-05T23:58:02.202Z,71.57
